KTYS/TYS METAR and TAF weather

Enter ICAO airport designator
Station Type Date Time Source
KTYS METAR 2019/10/23 19:53 UTC NOAA

KTYS 231953Z 00000KT 10SM CLR 18/M02 A3015 RMK AO2 SLP207 T01831017


Station Type Date Time Source
KTYS Decoded METAR 2019/10/23 19:53 UTC NOAA

MCGHEE TYSON AIRPORT, TN, United States (KTYS) 35-49N 083-59W 302M
Oct 23, 2019 - 03:53 PM EDT / 2019.10.23 1953 UTC
Wind: Calm:0
Visibility: 10 mile(s):0
Sky conditions: clear
Temperature: 64.9 F (18.3 C)
Dew Point: 28.9 F (-1.7 C)
Relative Humidity: 25%
Pressure (altimeter): 30.15 in. Hg (1020 hPa)
ob: KTYS 231953Z 00000KT 10SM CLR 18/M02 A3015 RMK AO2 SLP207 T01831017
cycle: 20

Station Type Date Time Source
KTYS TAF 2019/10/23 18:22 UTC NOAA

TAF KTYS 231720Z 2318/2418 VRB03KT P6SM SKC

Example: see airport list